Time;durP1;ratioP1;P1;durP2;ratioP2;P2;SDS_P1;SDS_P2;PMS_P1;PMS_P2;Temp;Humidity;BMP_temperature;BMP_pressure;BME280_temperature;BME280_humidity;BME280_pressure;Samples;Min_cycle;Max_cycle;Signal;HPM_P1;HPM_P2
2023/08/05 00:00:37;;;;;;;9.95;3.30;;;;;;;14.82;61.78;100181.88;5020622;28;20516;-54
2023/08/05 00:03:04;;;;;;;10.60;3.53;;;;;;;14.83;61.88;100172.34;5029569;28;20041;-56
2023/08/05 00:05:31;;;;;;;10.32;3.28;;;;;;;14.81;62.06;100177.56;5028747;28;20740;-55
2023/08/05 00:07:57;;;;;;;9.10;4.05;;;;;;;14.80;62.11;100183.69;5024133;28;20050;-52
2023/08/05 00:10:24;;;;;;;11.38;3.33;;;;;;;14.78;61.86;100180.22;5017044;28;20049;-55
2023/08/05 00:12:51;;;;;;;8.15;3.65;;;;;;;14.78;62.02;100180.22;5028717;28;20048;-54
2023/08/05 00:15:17;;;;;;;9.85;3.80;;;;;;;14.78;61.96;100164.59;5023162;28;20521;-53
2023/08/05 00:17:44;;;;;;;8.75;3.75;;;;;;;14.77;61.73;100157.66;5029028;28;20409;-56
2023/08/05 00:20:12;;;;;;;9.70;3.78;;;;;;;14.76;62.01;100151.53;5022279;28;20045;-55
2023/08/05 00:22:39;;;;;;;11.18;4.05;;;;;;;14.75;62.30;100130.72;5020135;28;20103;-52
2023/08/05 00:25:06;;;;;;;8.65;3.63;;;;;;;14.75;62.18;100120.28;5023467;28;20056;-53
2023/08/05 00:27:32;;;;;;;10.30;3.60;;;;;;;14.73;62.48;100115.09;5026504;28;20042;-55
2023/08/05 00:29:59;;;;;;;13.85;3.75;;;;;;;14.74;62.29;100110.75;5020709;28;20565;-54
2023/08/05 00:32:27;;;;;;;9.93;3.20;;;;;;;14.74;62.47;100100.31;5020945;28;20068;-54
2023/08/05 00:34:54;;;;;;;9.10;3.50;;;;;;;14.71;62.00;100095.16;5021525;28;20045;-55
2023/08/05 00:37:21;;;;;;;9.95;3.80;;;;;;;14.71;62.35;100102.97;5023549;28;20485;-57
2023/08/05 00:39:47;;;;;;;9.13;3.42;;;;;;;14.69;62.42;100091.75;5019060;28;20448;-55
2023/08/05 00:42:18;;;;;;;8.20;3.17;;;;;;;14.68;62.35;100101.28;5017682;28;20095;-55
2023/08/05 00:44:45;;;;;;;9.00;3.47;;;;;;;14.64;62.38;100099.63;5021095;28;20053;-57
2023/08/05 00:47:16;;;;;;;12.35;3.65;;;;;;;14.61;62.70;100097.94;5023482;28;20108;-53
2023/08/05 00:49:43;;;;;;;9.68;3.70;;;;;;;14.58;62.46;100095.41;5021599;28;20178;-53
2023/08/05 00:52:12;;;;;;;13.60;3.92;;;;;;;14.57;62.58;100085.88;5019507;28;20039;-55
2023/08/05 00:54:38;;;;;;;14.68;3.90;;;;;;;14.54;63.32;100072.88;5018372;28;20054;-56
2023/08/05 00:57:06;;;;;;;15.57;4.03;;;;;;;14.53;63.20;100076.41;5019744;28;20056;-57
2023/08/05 00:59:33;;;;;;;11.13;3.85;;;;;;;14.53;62.97;100081.59;5024017;28;20516;-57
2023/08/05 01:01:59;;;;;;;8.43;4.25;;;;;;;14.53;63.03;100073.78;5022172;28;20042;-55
2023/08/05 01:04:26;;;;;;;16.33;4.90;;;;;;;14.53;63.08;100058.16;5026135;28;20053;-54
2023/08/05 01:06:53;;;;;;;11.82;4.35;;;;;;;14.53;63.13;100050.31;5022640;28;20738;-53
2023/08/05 01:09:20;;;;;;;9.20;3.67;;;;;;;14.55;63.36;100045.94;5021357;28;20442;-55
2023/08/05 01:11:47;;;;;;;15.35;4.35;;;;;;;14.56;63.13;100034.59;5018842;28;20548;-56
2023/08/05 01:14:14;;;;;;;13.13;4.25;;;;;;;14.56;62.87;100029.41;5026328;28;20064;-55
2023/08/05 01:16:40;;;;;;;10.82;3.95;;;;;;;14.54;63.01;100020.75;5020375;28;20042;-55
2023/08/05 01:19:16;;;;;;;10.98;3.90;;;;;;;14.52;62.92;100019.91;5016188;28;20119;-54
2023/08/05 01:24:31;;;;;;;12.50;4.10;;;;;;;14.46;63.52;100007.03;5039110;28;20433;-54
2023/08/05 01:26:59;;;;;;;10.43;4.30;;;;;;;14.43;63.44;99996.66;5024001;28;20051;-53
2023/08/05 01:29:25;;;;;;;11.68;4.28;;;;;;;14.40;63.08;99988.00;5025917;28;20206;-55
2023/08/05 01:31:53;;;;;;;14.88;4.40;;;;;;;14.41;63.32;99983.66;5025839;28;20486;-56
2023/08/05 01:34:21;;;;;;;11.98;4.18;;;;;;;14.42;63.88;99976.72;5025082;28;20046;-57
2023/08/05 01:36:47;;;;;;;7.40;3.67;;;;;;;14.40;63.55;99972.38;5020485;28;20645;-54
2023/08/05 01:39:14;;;;;;;9.80;4.00;;;;;;;14.38;63.97;99960.25;5014947;28;20053;-55
2023/08/05 01:41:41;;;;;;;12.30;4.45;;;;;;;14.37;64.01;99950.75;5017165;28;20077;-57
2023/08/05 01:44:08;;;;;;;9.07;3.92;;;;;;;14.37;63.83;99956.81;5024552;28;20042;-56
2023/08/05 01:46:34;;;;;;;12.77;4.55;;;;;;;14.33;63.96;99955.16;5020658;28;20053;-58
2023/08/05 01:49:01;;;;;;;10.00;4.55;;;;;;;14.34;63.70;99951.66;5025513;28;20136;-55
2023/08/05 01:51:28;;;;;;;8.30;3.78;;;;;;;14.33;64.31;99938.66;5024814;28;20524;-58
2023/08/05 01:53:54;;;;;;;11.80;4.97;;;;;;;14.32;63.95;99943.00;5027170;28;20438;-53
2023/08/05 01:56:21;;;;;;;11.57;4.22;;;;;;;14.31;64.22;99946.50;5024902;28;20053;-56
2023/08/05 01:58:48;;;;;;;13.00;5.13;;;;;;;14.29;63.50;99934.41;5025190;28;20527;-51
2023/08/05 02:01:14;;;;;;;10.70;4.38;;;;;;;14.29;63.93;99937.88;5022985;28;20056;-51
2023/08/05 02:03:41;;;;;;;13.75;5.57;;;;;;;14.28;64.14;99938.75;5024771;23;20053;-56
2023/08/05 02:06:08;;;;;;;12.35;4.15;;;;;;;14.27;64.01;99929.22;5012445;28;20493;-54
2023/08/05 02:08:35;;;;;;;12.27;4.28;;;;;;;14.27;64.23;99929.22;5015589;28;21544;-56
2023/08/05 02:11:03;;;;;;;10.90;4.47;;;;;;;14.26;64.30;99917.94;5016825;28;20049;-54
2023/08/05 02:13:30;;;;;;;12.65;4.20;;;;;;;14.26;64.47;99904.06;5016636;28;20049;-55
2023/08/05 02:15:57;;;;;;;10.57;3.85;;;;;;;14.25;64.58;99902.34;5019171;28;20037;-55
2023/08/05 02:18:23;;;;;;;10.15;4.00;;;;;;;14.24;64.49;99900.63;5014363;28;20439;-58
2023/08/05 02:20:50;;;;;;;14.68;4.47;;;;;;;14.22;64.61;99894.59;5015699;28;20072;-55
2023/08/05 02:23:17;;;;;;;12.18;4.80;;;;;;;14.24;64.75;99903.22;5019838;28;20044;-56
2023/08/05 02:25:43;;;;;;;10.75;4.13;;;;;;;14.22;64.75;99902.41;5022111;28;20116;-57
2023/08/05 02:28:10;;;;;;;10.27;4.50;;;;;;;14.20;64.76;99885.94;5018265;28;20053;-54
2023/08/05 02:30:36;;;;;;;11.75;3.83;;;;;;;14.17;65.11;99884.28;5020218;28;20552;-53
2023/08/05 02:33:03;;;;;;;11.23;4.32;;;;;;;14.16;64.85;99884.31;5013825;28;20049;-54
2023/08/05 02:35:30;;;;;;;11.23;4.10;;;;;;;14.14;64.90;99880.00;5001816;28;20046;-53
2023/08/05 02:37:56;;;;;;;12.98;4.25;;;;;;;14.13;65.24;99880.03;5001963;28;20053;-54
2023/08/05 02:40:23;;;;;;;8.60;3.70;;;;;;;14.14;65.25;99871.31;4999801;28;20046;-56
2023/08/05 02:42:49;;;;;;;12.73;4.78;;;;;;;14.13;64.90;99860.06;5005460;28;20053;-55
2023/08/05 02:45:16;;;;;;;9.57;4.38;;;;;;;14.14;65.14;99850.47;5006064;28;20523;-52
2023/08/05 02:47:43;;;;;;;9.73;3.58;;;;;;;14.16;65.12;99847.84;5003800;28;20570;-57
2023/08/05 02:50:09;;;;;;;10.63;4.70;;;;;;;14.14;65.10;99851.34;5008424;28;20041;-56
2023/08/05 02:52:36;;;;;;;13.63;4.18;;;;;;;14.16;65.21;99855.66;5003911;28;20045;-55
2023/08/05 02:55:03;;;;;;;11.65;4.60;;;;;;;14.16;64.91;99853.06;5010010;28;20049;-55
2023/08/05 02:57:30;;;;;;;12.50;4.40;;;;;;;14.11;65.18;99848.78;5002883;28;20049;-54
2023/08/05 02:59:56;;;;;;;11.07;4.35;;;;;;;14.08;65.54;99850.63;5003652;28;20049;-55
2023/08/05 03:02:23;;;;;;;15.23;4.40;;;;;;;14.05;65.89;99843.69;5004130;28;20073;-56
2023/08/05 03:04:50;;;;;;;12.93;4.68;;;;;;;14.05;65.14;99833.28;4986543;28;20498;-53
2023/08/05 03:07:16;;;;;;;11.93;4.82;;;;;;;14.04;65.87;99821.16;4985107;28;20057;-55
2023/08/05 03:09:43;;;;;;;11.30;4.28;;;;;;;14.03;65.34;99819.47;4984037;28;20054;-55
2023/08/05 03:12:10;;;;;;;13.60;5.05;;;;;;;14.02;66.00;99809.94;4979449;28;20057;-56
2023/08/05 03:14:36;;;;;;;12.45;4.63;;;;;;;13.99;66.02;99807.38;4985705;28;20061;-55
2023/08/05 03:17:03;;;;;;;11.07;4.28;;;;;;;13.96;65.85;99804.84;4989797;28;20053;-57
2023/08/05 03:19:30;;;;;;;19.65;5.20;;;;;;;13.95;65.93;99792.72;4988351;28;20046;-57
2023/08/05 03:21:56;;;;;;;12.88;5.30;;;;;;;13.92;66.43;99787.56;4982616;28;20372;-57
2023/08/05 03:24:23;;;;;;;9.38;4.65;;;;;;;13.92;66.80;99770.22;4981629;28;20050;-57
2023/08/05 03:26:49;;;;;;;9.85;4.25;;;;;;;13.93;66.63;99774.53;4985664;28;20466;-57
2023/08/05 03:29:16;;;;;;;15.77;4.50;;;;;;;13.95;66.42;99777.09;4986007;28;20057;-56
2023/08/05 03:31:46;;;;;;;10.77;4.20;;;;;;;13.93;66.91;99778.88;4983571;28;20051;-57
2023/08/05 03:34:13;;;;;;;10.77;4.97;;;;;;;13.95;67.04;99777.09;4984183;28;24313;-55
2023/08/05 03:36:40;;;;;;;9.25;3.72;;;;;;;13.95;66.48;99777.94;4984190;28;20513;-56
2023/08/05 03:39:06;;;;;;;12.25;5.05;;;;;;;13.96;66.21;99774.47;4984436;28;20388;-56
2023/08/05 03:41:34;;;;;;;10.35;4.18;;;;;;;13.97;66.50;99770.09;4981711;28;20565;-55
2023/08/05 03:44:01;;;;;;;13.52;4.35;;;;;;;13.98;66.38;99756.19;4988501;28;20130;-56
2023/08/05 03:46:28;;;;;;;11.30;4.35;;;;;;;13.97;66.67;99760.56;4986585;28;20113;-55
2023/08/05 03:48:55;;;;;;;9.85;3.92;;;;;;;13.97;67.21;99749.28;4990255;28;20121;-56
2023/08/05 03:51:22;;;;;;;12.18;5.15;;;;;;;13.99;66.58;99750.09;4985766;28;20050;-56
2023/08/05 03:53:48;;;;;;;10.15;4.00;;;;;;;13.99;66.56;99750.09;4979634;28;20054;-52
2023/08/05 03:56:19;;;;;;;9.88;4.20;;;;;;;14.00;67.28;99733.59;4985348;28;20057;-52
2023/08/05 03:58:46;;;;;;;12.15;4.53;;;;;;;14.00;66.74;99728.38;4985516;28;20054;-52
2023/08/05 04:01:16;;;;;;;9.95;4.38;;;;;;;14.00;66.72;99720.56;4981314;28;20109;-58
2023/08/05 04:03:44;;;;;;;12.18;4.07;;;;;;;13.99;66.98;99722.31;4979519;28;20065;-53
2023/08/05 04:06:12;;;;;;;11.25;4.30;;;;;;;13.97;66.83;99715.44;4987434;28;20043;-53
2023/08/05 04:08:39;;;;;;;10.98;4.22;;;;;;;13.98;67.41;99719.72;4986165;28;20458;-55
2023/08/05 04:11:06;;;;;;;9.00;3.75;;;;;;;13.98;66.59;99711.91;4986698;28;20046;-53
2023/08/05 04:13:33;;;;;;;11.20;3.53;;;;;;;13.97;67.54;99702.41;4984650;28;20517;-54
2023/08/05 04:16:03;;;;;;;12.05;3.95;;;;;;;13.97;66.98;99695.47;4985404;28;20069;-54
2023/08/05 04:18:31;;;;;;;9.70;3.78;;;;;;;13.96;66.96;99685.09;4981224;28;20053;-55
2023/08/05 04:20:58;;;;;;;11.90;4.70;;;;;;;13.91;67.26;99687.78;4979866;28;20046;-55
2023/08/05 04:23:26;;;;;;;9.45;3.70;;;;;;;13.88;67.21;99683.50;4984576;28;20050;-56
2023/08/05 04:25:52;;;;;;;11.75;3.33;;;;;;;13.87;67.29;99676.59;4979504;28;20042;-54
2023/08/05 04:28:19;;;;;;;9.57;4.15;;;;;;;13.86;67.82;99669.69;4987513;28;20514;-52
2023/08/05 04:30:48;;;;;;;11.82;4.57;;;;;;;13.84;67.91;99655.81;4984589;28;20065;-52
2023/08/05 04:33:15;;;;;;;11.68;4.90;;;;;;;13.81;67.90;99650.69;4984197;28;20141;-51
2023/08/05 04:35:47;;;;;;;13.55;4.10;;;;;;;13.78;67.87;99648.16;4989639;28;20042;-53
2023/08/05 04:38:15;;;;;;;13.70;4.47;;;;;;;13.77;68.23;99638.63;4987974;28;20050;-54
2023/08/05 04:40:42;;;;;;;11.80;5.05;;;;;;;13.78;66.99;99642.09;4979056;28;20693;-53
2023/08/05 04:43:09;;;;;;;11.50;4.40;;;;;;;13.75;67.78;99636.06;4981570;28;20058;-53
2023/08/05 04:45:35;;;;;;;10.85;4.15;;;;;;;13.77;68.32;99635.19;4984324;28;20059;-51
2023/08/05 04:48:04;;;;;;;11.93;4.60;;;;;;;13.78;68.21;99624.72;4982725;28;20038;-53
2023/08/05 04:50:31;;;;;;;18.13;4.80;;;;;;;13.78;68.40;99624.72;4978413;28;20049;-53
2023/08/05 04:52:57;;;;;;;11.02;5.15;;;;;;;13.79;67.54;99623.84;4981017;28;20046;-49
2023/08/05 04:55:24;;;;;;;14.02;4.65;;;;;;;13.79;68.17;99616.03;4978404;28;20049;-51
2023/08/05 04:57:53;;;;;;;11.98;4.20;;;;;;;13.80;67.89;99611.69;4979003;28;20045;-50
2023/08/05 05:00:20;;;;;;;14.30;4.82;;;;;;;13.77;67.98;99607.41;4977539;28;20511;-53
2023/08/05 05:02:48;;;;;;;10.80;4.32;;;;;;;13.78;67.85;99600.47;4977510;28;20046;-48
2023/08/05 05:05:15;;;;;;;10.80;4.45;;;;;;;13.76;68.25;99595.28;4978202;28;20109;-55
2023/08/05 05:07:42;;;;;;;10.15;4.30;;;;;;;13.74;68.19;99597.06;4978972;28;20057;-50
2023/08/05 05:10:09;;;;;;;12.40;4.55;;;;;;;13.72;68.37;99591.88;4975090;28;20042;-52
2023/08/05 05:12:36;;;;;;;14.88;4.63;;;;;;;13.70;68.83;99595.41;4982663;28;20042;-50
2023/08/05 05:15:02;;;;;;;10.70;4.22;;;;;;;13.69;69.31;99589.38;4983326;28;20046;-52
2023/08/05 05:17:34;;;;;;;12.98;4.93;;;;;;;13.67;68.93;99577.25;4986512;28;20038;-49
2023/08/05 05:20:05;;;;;;;14.48;5.25;;;;;;;13.62;69.57;99582.59;4986209;28;20113;-53
2023/08/05 05:22:32;;;;;;;14.77;4.93;;;;;;;13.58;69.81;99571.38;4987356;28;20073;-53
2023/08/05 05:24:59;;;;;;;13.98;5.05;;;;;;;13.58;69.09;99571.38;4986889;28;20411;-55
2023/08/05 05:27:26;;;;;;;11.32;4.40;;;;;;;13.53;69.74;99578.44;4984740;28;20117;-49
2023/08/05 05:29:52;;;;;;;10.60;4.47;;;;;;;13.51;70.23;99559.41;4980131;28;20046;-52
2023/08/05 05:32:19;;;;;;;12.27;5.18;;;;;;;13.48;69.87;99559.47;4986433;28;20416;-50
2023/08/05 05:34:46;;;;;;;12.65;4.82;;;;;;;13.45;70.27;99559.53;4982413;28;20053;-50
2023/08/05 05:37:12;;;;;;;9.57;4.13;;;;;;;13.43;70.76;99545.69;4984494;28;20503;-49
2023/08/05 05:39:40;;;;;;;11.30;5.07;;;;;;;13.41;69.78;99547.47;4985761;28;20073;-50
2023/08/05 05:42:06;;;;;;;16.10;5.00;;;;;;;13.40;69.83;99554.41;4981176;28;20109;-50
2023/08/05 05:44:33;;;;;;;14.45;5.60;;;;;;;13.37;70.36;99552.75;4980725;28;20053;-48
2023/08/05 05:47:00;;;;;;;15.27;4.60;;;;;;;13.37;70.10;99552.75;4981806;28;20658;-50
2023/08/05 05:49:27;;;;;;;13.43;4.88;;;;;;;13.34;70.93;99552.81;4982593;28;20109;-52
2023/08/05 05:51:54;;;;;;;12.27;4.57;;;;;;;13.36;70.92;99538.03;4978160;28;20054;-50
2023/08/05 05:54:21;;;;;;;13.07;5.10;;;;;;;13.35;70.58;99538.91;4986162;28;20831;-46
2023/08/05 05:56:48;;;;;;;12.45;4.43;;;;;;;13.34;71.07;99526.81;4978918;28;20061;-49
2023/08/05 05:59:15;;;;;;;14.05;6.63;;;;;;;13.32;71.98;99518.19;4982446;28;20414;-48
2023/08/05 06:01:42;;;;;;;16.73;5.15;;;;;;;13.31;70.95;99526.88;4984834;28;20058;-47
2023/08/05 06:04:09;;;;;;;15.30;4.88;;;;;;;13.29;72.36;99514.78;4975230;28;20042;-50
2023/08/05 06:06:36;;;;;;;12.10;4.88;;;;;;;13.30;71.93;99506.97;4980326;28;20081;-49
2023/08/05 06:09:04;;;;;;;12.52;3.83;;;;;;;13.27;72.43;99499.22;4984753;28;20046;-48
2023/08/05 06:11:32;;;;;;;10.98;4.28;;;;;;;13.29;72.26;99496.59;4983300;28;20065;-47
2023/08/05 06:13:59;;;;;;;11.60;4.13;;;;;;;13.28;71.96;99495.75;4982560;28;20065;-47
2023/08/05 06:16:26;;;;;;;13.70;5.35;;;;;;;13.31;72.61;99495.66;4982872;28;20058;-50
2023/08/05 06:18:53;;;;;;;13.48;4.25;;;;;;;13.34;71.72;99500.78;4983084;28;20105;-49
2023/08/05 06:21:19;;;;;;;10.40;4.78;;;;;;;13.33;72.72;99488.69;4981141;28;20050;-48
2023/08/05 06:23:49;;;;;;;9.43;3.95;;;;;;;13.35;71.96;99496.47;4982244;28;20586;-48
2023/08/05 06:26:16;;;;;;;14.48;4.43;;;;;;;13.34;72.82;99489.56;4984413;28;20065;-50
2023/08/05 06:28:42;;;;;;;10.27;4.30;;;;;;;13.36;72.54;99488.63;4987345;28;20049;-49
2023/08/05 06:31:09;;;;;;;14.48;4.18;;;;;;;13.35;72.70;99486.88;4984999;28;20057;-46
2023/08/05 06:33:36;;;;;;;16.27;4.72;;;;;;;13.37;72.23;99494.66;4985443;28;20054;-44
2023/08/05 06:36:03;;;;;;;14.60;4.63;;;;;;;13.37;72.09;99499.84;4985055;28;20542;-48
2023/08/05 06:38:29;;;;;;;13.10;4.93;;;;;;;13.40;72.39;99489.38;4987681;28;20058;-47
2023/08/05 06:40:56;;;;;;;12.38;4.25;;;;;;;13.42;72.08;99486.75;4987417;28;20050;-46
2023/08/05 06:43:23;;;;;;;17.02;5.07;;;;;;;13.45;73.25;99491.91;4988799;28;20046;-48
2023/08/05 06:45:52;;;;;;;10.35;4.00;;;;;;;13.48;72.65;99482.28;4990262;28;20042;-48
2023/08/05 06:48:19;;;;;;;11.82;4.60;;;;;;;13.54;73.15;99481.28;4987464;28;20062;-46
2023/08/05 06:50:46;;;;;;;12.20;5.03;;;;;;;13.57;72.75;99470.81;4987388;28;20046;-51
2023/08/05 06:53:12;;;;;;;12.07;4.28;;;;;;;13.59;72.73;99474.25;4982034;28;20651;-50
2023/08/05 06:55:39;;;;;;;16.25;5.38;;;;;;;13.62;72.75;99468.94;4987203;28;20051;-48
2023/08/05 06:58:06;;;;;;;15.05;5.22;;;;;;;13.64;73.34;99471.50;4986722;28;20498;-47
2023/08/05 07:00:32;;;;;;;14.10;5.43;;;;;;;13.71;73.22;99462.66;4985861;28;20117;-50
2023/08/05 07:03:01;;;;;;;14.68;5.28;;;;;;;13.79;73.39;99451.19;4986997;28;20057;-49
2023/08/05 07:05:29;;;;;;;13.43;5.35;;;;;;;13.80;73.71;99451.16;4979045;28;20130;-46
2023/08/05 07:07:56;;;;;;;12.73;5.85;;;;;;;13.78;72.97;99450.34;4980555;28;20411;-47
2023/08/05 07:10:24;;;;;;;10.65;3.95;;;;;;;13.71;73.21;99456.63;4987710;28;20042;-47
2023/08/05 07:12:50;;;;;;;12.02;4.75;;;;;;;13.64;73.62;99444.66;4984452;28;20494;-47
2023/08/05 07:15:17;;;;;;;13.32;5.18;;;;;;;13.57;73.80;99439.59;4982531;28;20053;-49
2023/08/05 07:17:43;;;;;;;13.25;4.38;;;;;;;13.54;74.57;99434.47;4982720;28;20046;-48
2023/08/05 07:20:10;;;;;;;8.60;3.42;;;;;;;13.38;75.43;99426.16;4981959;28;20046;-47
2023/08/05 07:22:37;;;;;;;10.00;4.07;;;;;;;13.28;75.11;99422.94;4977938;28;20057;-49
2023/08/05 07:25:04;;;;;;;9.82;3.85;;;;;;;13.18;74.44;99418.84;4981275;28;20047;-49
2023/08/05 07:27:31;;;;;;;15.05;4.53;;;;;;;13.17;73.30;99417.13;4982022;28;20073;-46
2023/08/05 07:29:58;;;;;;;9.98;4.70;;;;;;;13.16;73.79;99407.59;4982427;28;20064;-48
2023/08/05 07:32:24;;;;;;;10.82;4.40;;;;;;;13.16;73.59;99402.41;4987202;28;20051;-46
2023/08/05 07:34:53;;;;;;;13.13;5.47;;;;;;;13.18;73.08;99400.63;4978533;28;20478;-50
2023/08/05 07:37:20;;;;;;;11.15;3.85;;;;;;;13.18;73.11;99398.03;4979373;28;20057;-48
2023/08/05 07:39:48;;;;;;;18.63;5.38;;;;;;;13.15;73.29;99392.91;4980055;28;20050;-49
2023/08/05 07:42:15;;;;;;;12.18;4.47;;;;;;;13.18;73.98;99385.03;4979973;28;20712;-48
2023/08/05 07:44:42;;;;;;;12.07;3.80;;;;;;;13.18;74.48;99382.44;4984492;28;21272;-51
2023/08/05 07:47:09;;;;;;;12.85;4.35;;;;;;;13.16;74.55;99368.59;4980454;28;20089;-48
2023/08/05 07:49:37;;;;;;;15.88;4.65;;;;;;;13.11;74.31;99364.38;4983807;28;20491;-45
2023/08/05 07:52:06;;;;;;;11.05;4.43;;;;;;;13.13;74.47;99358.28;4984893;28;20051;-45
2023/08/05 07:54:34;;;;;;;12.70;4.10;;;;;;;13.09;74.71;99350.56;4984545;28;20052;-48
2023/08/05 07:57:01;;;;;;;11.68;3.88;;;;;;;13.06;74.24;99345.44;4985443;28;20038;-49
2023/08/05 07:59:28;;;;;;;5.28;2.15;;;;;;;12.77;75.52;99333.97;4985754;28;20498;-48
2023/08/05 08:01:55;;;;;;;5.07;2.03;;;;;;;12.68;75.08;99331.59;4980264;28;20050;-50
2023/08/05 08:04:22;;;;;;;5.82;2.22;;;;;;;12.64;74.80;99327.38;4982117;28;20058;-47
2023/08/05 08:06:48;;;;;;;8.80;2.83;;;;;;;12.66;74.43;99320.41;4982211;28;20503;-46
2023/08/05 08:09:15;;;;;;;6.10;2.70;;;;;;;12.44;75.75;99321.75;4983749;28;20085;-51
2023/08/05 08:11:42;;;;;;;8.07;2.67;;;;;;;12.51;75.68;99316.41;4987145;28;20549;-47
2023/08/05 08:14:08;;;;;;;7.82;3.42;;;;;;;12.49;75.36;99313.00;4987941;28;20058;-50
2023/08/05 08:16:35;;;;;;;7.20;3.10;;;;;;;12.40;74.71;99303.66;4985372;28;20072;-48
2023/08/05 08:19:04;;;;;;;9.52;3.53;;;;;;;12.31;75.53;99302.97;4983658;28;20039;-48
2023/08/05 08:21:31;;;;;;;8.63;2.90;;;;;;;12.33;75.42;99288.19;4986026;28;20132;-50
2023/08/05 08:23:58;;;;;;;8.82;3.13;;;;;;;12.33;74.85;99283.00;4984284;28;20583;-51
2023/08/05 08:26:25;;;;;;;10.02;3.05;;;;;;;12.28;76.48;99274.47;4983679;28;20097;-50
2023/08/05 08:28:51;;;;;;;8.90;3.13;;;;;;;12.27;75.64;99257.19;4981399;28;20046;-50
2023/08/05 08:31:18;;;;;;;7.30;3.03;;;;;;;12.23;75.66;99250.38;4984370;28;20042;-47
2023/08/05 08:33:45;;;;;;;13.23;3.70;;;;;;;12.19;75.65;99241.78;4979747;28;20223;-52
2023/08/05 08:36:12;;;;;;;10.13;3.15;;;;;;;12.14;77.12;99237.56;4980143;28;20065;-49
2023/08/05 08:38:39;;;;;;;8.38;2.88;;;;;;;12.23;76.97;99239.13;4980710;28;20062;-49
2023/08/05 08:41:05;;;;;;;7.40;4.18;;;;;;;12.16;77.68;99222.84;4977910;28;20406;-48
2023/08/05 08:43:32;;;;;;;8.13;3.60;;;;;;;12.13;77.11;99223.72;4983918;28;20053;-50
2023/08/05 08:46:02;;;;;;;7.28;3.35;;;;;;;12.24;76.72;99220.91;4983602;28;20046;-52
2023/08/05 08:48:29;;;;;;;10.32;3.60;;;;;;;12.22;77.19;99220.09;4979675;28;20058;-50
2023/08/05 08:50:58;;;;;;;10.48;3.60;;;;;;;12.23;76.95;99216.63;4987180;28;20046;-52
2023/08/05 08:53:26;;;;;;;10.48;3.45;;;;;;;12.23;76.99;99220.94;4982731;28;20104;-51
2023/08/05 08:55:53;;;;;;;9.35;3.83;;;;;;;12.27;76.72;99215.66;4968988;28;20038;-49
2023/08/05 08:58:20;;;;;;;7.50;4.20;;;;;;;12.24;78.39;99209.66;4979839;28;20380;-51
2023/08/05 09:00:47;;;;;;;7.97;3.40;;;;;;;12.23;78.37;99208.84;4983399;28;20054;-53
2023/08/05 09:03:14;;;;;;;10.77;3.15;;;;;;;12.25;77.63;99214.81;4981141;28;20062;-48
2023/08/05 09:05:46;;;;;;;5.55;2.70;;;;;;;12.14;78.70;99209.03;4978380;28;20050;-52
2023/08/05 09:08:13;;;;;;;7.78;3.65;;;;;;;12.14;77.74;99194.31;4980353;28;20046;-50
2023/08/05 09:10:39;;;;;;;7.22;3.35;;;;;;;12.18;78.98;99195.09;4984434;28;20052;-52
2023/08/05 09:13:07;;;;;;;8.98;3.58;;;;;;;12.21;79.14;99179.44;4979344;28;20054;-53
2023/08/05 09:15:36;;;;;;;7.85;3.22;;;;;;;12.25;78.06;99175.88;4982704;28;20038;-53
2023/08/05 09:18:04;;;;;;;8.25;2.75;;;;;;;12.14;79.75;99178.75;4982726;28;20120;-48
2023/08/05 09:20:32;;;;;;;9.27;3.15;;;;;;;12.19;78.22;99165.63;4984684;28;20121;-48
2023/08/05 09:23:01;;;;;;;11.52;3.95;;;;;;;12.13;78.91;99166.63;4979188;28;20247;-50
2023/08/05 09:25:30;;;;;;;11.25;3.40;;;;;;;12.17;78.91;99149.25;4973358;28;20053;-54
2023/08/05 09:27:59;;;;;;;5.68;2.67;;;;;;;12.12;79.16;99143.34;4986347;28;20169;-48
2023/08/05 09:30:27;;;;;;;9.82;3.00;;;;;;;12.14;78.79;99125.97;4965852;28;20497;-53
2023/08/05 09:32:54;;;;;;;8.70;2.78;;;;;;;12.14;80.03;99120.78;4982479;28;20050;-48
2023/08/05 09:35:21;;;;;;;7.22;2.65;;;;;;;12.16;79.61;99113.81;4982236;28;20054;-48
2023/08/05 09:37:51;;;;;;;5.32;2.03;;;;;;;12.24;79.95;99096.31;4982043;28;20046;-50
2023/08/05 09:42:59;;;;;;;7.65;3.70;;;;;;;12.24;79.67;99090.25;5054960;27;20420;-49
2023/08/05 09:45:28;;;;;;;7.97;4.70;;;;;;;12.24;80.72;99095.44;5035013;28;20041;-51
2023/08/05 09:48:04;;;;;;;6.15;2.90;;;;;;;12.27;79.17;99091.03;5045460;28;20154;-51
2023/08/05 09:50:31;;;;;;;7.35;3.55;;;;;;;12.28;79.95;99082.34;5043752;28;20755;-51
2023/08/05 09:53:01;;;;;;;9.57;4.63;;;;;;;12.35;79.65;99088.22;5042805;28;20482;-53
2023/08/05 09:55:28;;;;;;;8.65;3.58;;;;;;;12.38;79.65;99082.09;5036750;28;20061;-51
2023/08/05 09:57:55;;;;;;;5.57;3.40;;;;;;;12.38;79.81;99076.91;5032305;28;20150;-52
2023/08/05 10:00:23;;;;;;;7.80;3.80;;;;;;;12.39;80.72;99068.25;5050168;28;20546;-49
2023/08/05 10:02:50;;;;;;;8.50;3.25;;;;;;;12.47;79.78;99058.50;5051253;28;20524;-50
2023/08/05 10:05:17;;;;;;;7.63;3.40;;;;;;;12.44;79.58;99061.19;5050044;28;20117;-49
2023/08/05 10:07:44;;;;;;;5.80;3.40;;;;;;;12.50;79.91;99053.22;5052571;28;20148;-48
2023/08/05 10:10:14;;;;;;;6.97;3.55;;;;;;;12.51;80.59;99043.69;5051403;28;20060;-49
2023/08/05 10:12:44;;;;;;;6.78;2.72;;;;;;;12.43;80.18;99043.91;5054557;28;20072;-51
2023/08/05 10:15:19;;;;;;;4.22;2.88;;;;;;;12.38;80.88;99050.94;5053735;28;20509;-54
2023/08/05 10:17:46;;;;;;;8.20;3.40;;;;;;;12.47;81.49;99035.13;5060248;28;20051;-52
2023/08/05 10:20:13;;;;;;;4.85;2.70;;;;;;;12.43;80.33;99033.50;5052792;28;20051;-52
2023/08/05 10:22:40;;;;;;;4.50;2.85;;;;;;;12.39;81.25;99021.50;5049017;28;20052;-50
2023/08/05 10:25:07;;;;;;;7.03;2.88;;;;;;;12.49;80.48;99022.94;5055396;28;20044;-51
2023/08/05 10:27:37;;;;;;;7.53;2.92;;;;;;;12.41;80.82;99024.91;5057211;28;20048;-54
2023/08/05 10:30:06;;;;;;;5.88;1.70;;;;;;;12.52;81.00;99017.66;5051829;28;20378;-53
2023/08/05 10:32:35;;;;;;;4.50;3.25;;;;;;;12.51;80.32;99013.38;5049347;28;20068;-48
2023/08/05 10:35:31;;;;;;;3.92;2.42;;;;;;;12.34;81.87;99019.84;5051781;28;20148;-53
2023/08/05 10:38:22;;;;;;;6.70;3.30;;;;;;;12.42;80.82;99016.22;5053702;28;20255;-50
2023/08/05 10:40:51;;;;;;;5.80;3.20;;;;;;;12.32;81.63;98998.28;5058221;28;20059;-52
2023/08/05 10:43:28;;;;;;;5.30;2.90;;;;;;;12.42;81.88;99005.81;5056693;28;20137;-51
2023/08/05 10:45:55;;;;;;;;;;;;;;;12.34;82.31;98999.09;5052343;28;20413;-55
2023/08/05 10:48:29;;;;;;;4.70;2.03;;;;;;;12.32;81.50;98987.03;5059528;28;19978;-54
2023/08/05 10:50:58;;;;;;;6.43;2.42;;;;;;;12.44;81.35;98993.66;5055411;28;20044;-50
2023/08/05 10:53:25;;;;;;;3.42;1.92;;;;;;;12.46;82.60;98997.91;5044657;28;20174;-48
2023/08/05 10:55:56;;;;;;;3.83;2.65;;;;;;;12.57;81.25;98984.63;5042139;28;20546;-52
2023/08/05 10:58:27;;;;;;;10.68;2.40;;;;;;;12.67;80.34;98986.97;5036170;28;20106;-49
2023/08/05 11:00:57;;;;;;;4.70;2.42;;;;;;;12.77;79.60;98985.78;5041708;28;20060;-51
2023/08/05 11:06:07;;;;;;;4.15;1.60;;;;;;;12.80;80.72;98980.50;5061021;27;20401;-52
2023/08/05 11:08:36;;;;;;;5.55;1.48;;;;;;;12.82;80.23;98989.13;5042377;28;20057;-52
2023/08/05 11:11:07;;;;;;;2.95;1.38;;;;;;;12.89;79.78;98981.13;5042679;28;20049;-52
2023/08/05 11:13:36;;;;;;;4.05;1.30;;;;;;;12.90;79.65;98975.06;5042410;28;20055;-53
2023/08/05 11:16:20;;;;;;;3.38;1.50;;;;;;;12.95;80.18;98975.78;5040361;28;20060;-54
2023/08/05 11:18:57;;;;;;;5.30;1.20;;;;;;;13.04;80.08;98972.88;5040090;28;20049;-51
2023/08/05 11:21:24;;;;;;;3.58;1.05;;;;;;;13.11;79.42;98969.19;5040972;28;20458;-52
2023/08/05 11:23:51;;;;;;;2.15;0.60;;;;;;;13.13;79.56;98963.13;5036540;28;20057;-51
2023/08/05 11:26:22;;;;;;;2.80;1.00;;;;;;;13.09;79.32;98959.75;5040341;28;20048;-51
2023/08/05 11:28:48;;;;;;;3.70;1.25;;;;;;;13.17;79.39;98959.53;5037052;28;20046;-53
2023/08/05 11:31:25;;;;;;;3.97;1.30;;;;;;;13.25;79.32;98954.94;5036465;28;20127;-50
2023/08/05 11:33:53;;;;;;;3.58;0.93;;;;;;;13.27;79.29;98958.31;5041332;28;20146;-51
2023/08/05 11:36:24;;;;;;;2.63;1.13;;;;;;;13.25;79.28;98960.13;5054563;28;20079;-50